sensor_id;sensor_type;location;lat;lon;timestamp;temperature;humidity
16347;DHT22;8283;48.504;13.734;2023-07-24T00:00:08;23.80;51.50
16347;DHT22;8283;48.504;13.734;2023-07-24T00:02:53;23.80;51.60
16347;DHT22;8283;48.504;13.734;2023-07-24T00:05:38;23.70;51.50
16347;DHT22;8283;48.504;13.734;2023-07-24T00:08:23;23.70;51.60
16347;DHT22;8283;48.504;13.734;2023-07-24T00:11:08;23.60;51.60
16347;DHT22;8283;48.504;13.734;2023-07-24T00:13:53;23.70;51.80
16347;DHT22;8283;48.504;13.734;2023-07-24T00:16:38;23.60;51.80
16347;DHT22;8283;48.504;13.734;2023-07-24T00:19:23;23.60;52.00
16347;DHT22;8283;48.504;13.734;2023-07-24T00:22:08;23.60;52.10
16347;DHT22;8283;48.504;13.734;2023-07-24T00:24:53;23.50;52.10
16347;DHT22;8283;48.504;13.734;2023-07-24T00:27:38;23.50;52.10
16347;DHT22;8283;48.504;13.734;2023-07-24T00:30:24;23.50;52.10
16347;DHT22;8283;48.504;13.734;2023-07-24T00:33:09;23.40;52.10
16347;DHT22;8283;48.504;13.734;2023-07-24T00:35:57;23.30;52.20
16347;DHT22;8283;48.504;13.734;2023-07-24T00:38:42;23.30;52.50
16347;DHT22;8283;48.504;13.734;2023-07-24T00:41:27;23.20;52.30
16347;DHT22;8283;48.504;13.734;2023-07-24T00:44:13;23.10;52.40
16347;DHT22;8283;48.504;13.734;2023-07-24T00:46:58;23.00;52.50
16347;DHT22;8283;48.504;13.734;2023-07-24T00:49:44;23.00;52.60
16347;DHT22;8283;48.504;13.734;2023-07-24T00:52:28;22.90;52.70
16347;DHT22;8283;48.504;13.734;2023-07-24T00:55:14;22.80;52.70
16347;DHT22;8283;48.504;13.734;2023-07-24T00:58:03;22.80;53.00
16347;DHT22;8283;48.504;13.734;2023-07-24T01:00:49;22.70;53.20
16347;DHT22;8283;48.504;13.734;2023-07-24T01:03:35;22.70;53.40
16347;DHT22;8283;48.504;13.734;2023-07-24T01:06:22;22.70;53.20
16347;DHT22;8283;48.504;13.734;2023-07-24T01:09:08;22.50;53.10
16347;DHT22;8283;48.504;13.734;2023-07-24T01:11:59;22.60;53.10
16347;DHT22;8283;48.504;13.734;2023-07-24T01:14:49;22.60;53.60
16347;DHT22;8283;48.504;13.734;2023-07-24T01:17:40;22.50;53.40
16347;DHT22;8283;48.504;13.734;2023-07-24T01:20:28;22.50;53.70
16347;DHT22;8283;48.504;13.734;2023-07-24T01:26:08;22.40;54.10
16347;DHT22;8283;48.504;13.734;2023-07-24T01:28:52;22.40;53.60
16347;DHT22;8283;48.504;13.734;2023-07-24T01:31:37;22.30;53.70
16347;DHT22;8283;48.504;13.734;2023-07-24T01:34:22;22.30;53.70
16347;DHT22;8283;48.504;13.734;2023-07-24T01:37:07;22.20;53.70
16347;DHT22;8283;48.504;13.734;2023-07-24T01:39:53;22.30;53.80
16347;DHT22;8283;48.504;13.734;2023-07-24T01:42:38;22.20;53.90
16347;DHT22;8283;48.504;13.734;2023-07-24T01:45:23;22.00;53.80
16347;DHT22;8283;48.504;13.734;2023-07-24T01:48:08;22.10;54.10
16347;DHT22;8283;48.504;13.734;2023-07-24T01:50:52;22.00;54.10
16347;DHT22;8283;48.504;13.734;2023-07-24T01:53:36;22.00;54.30
16347;DHT22;8283;48.504;13.734;2023-07-24T01:56:21;21.90;54.40
16347;DHT22;8283;48.504;13.734;2023-07-24T01:59:05;21.80;54.50
16347;DHT22;8283;48.504;13.734;2023-07-24T02:01:50;21.80;54.70
16347;DHT22;8283;48.504;13.734;2023-07-24T02:04:34;21.80;54.80
16347;DHT22;8283;48.504;13.734;2023-07-24T02:07:21;21.80;54.90
16347;DHT22;8283;48.504;13.734;2023-07-24T02:10:05;21.70;54.90
16347;DHT22;8283;48.504;13.734;2023-07-24T02:12:50;21.70;54.90
16347;DHT22;8283;48.504;13.734;2023-07-24T02:15:34;21.70;54.90
16347;DHT22;8283;48.504;13.734;2023-07-24T02:18:19;21.60;54.90
16347;DHT22;8283;48.504;13.734;2023-07-24T02:21:04;21.70;55.00
16347;DHT22;8283;48.504;13.734;2023-07-24T02:23:49;21.60;55.00
16347;DHT22;8283;48.504;13.734;2023-07-24T02:26:34;21.60;55.10
16347;DHT22;8283;48.504;13.734;2023-07-24T02:29:21;21.60;55.10
16347;DHT22;8283;48.504;13.734;2023-07-24T02:32:08;21.60;55.10
16347;DHT22;8283;48.504;13.734;2023-07-24T02:34:53;21.60;55.20
16347;DHT22;8283;48.504;13.734;2023-07-24T02:37:38;21.50;55.20
16347;DHT22;8283;48.504;13.734;2023-07-24T02:40:23;21.40;55.20
16347;DHT22;8283;48.504;13.734;2023-07-24T02:43:08;21.40;55.30
16347;DHT22;8283;48.504;13.734;2023-07-24T02:45:53;21.30;55.40
16347;DHT22;8283;48.504;13.734;2023-07-24T02:48:38;21.30;55.60
16347;DHT22;8283;48.504;13.734;2023-07-24T02:51:23;21.30;55.70
16347;DHT22;8283;48.504;13.734;2023-07-24T02:54:08;21.20;56.00
16347;DHT22;8283;48.504;13.734;2023-07-24T02:56:53;21.20;56.10
16347;DHT22;8283;48.504;13.734;2023-07-24T02:59:38;21.10;56.20
16347;DHT22;8283;48.504;13.734;2023-07-24T03:02:24;21.10;56.30
16347;DHT22;8283;48.504;13.734;2023-07-24T03:05:09;21.10;56.40
16347;DHT22;8283;48.504;13.734;2023-07-24T03:07:54;21.00;56.50
16347;DHT22;8283;48.504;13.734;2023-07-24T03:10:41;21.10;56.60
16347;DHT22;8283;48.504;13.734;2023-07-24T03:13:26;21.00;56.80
16347;DHT22;8283;48.504;13.734;2023-07-24T03:16:11;21.00;56.80
16347;DHT22;8283;48.504;13.734;2023-07-24T03:18:56;21.00;57.00
16347;DHT22;8283;48.504;13.734;2023-07-24T03:21:41;20.90;57.00
16347;DHT22;8283;48.504;13.734;2023-07-24T03:24:26;21.00;57.10
16347;DHT22;8283;48.504;13.734;2023-07-24T03:27:11;20.90;57.10
16347;DHT22;8283;48.504;13.734;2023-07-24T03:29:57;20.90;57.10
16347;DHT22;8283;48.504;13.734;2023-07-24T03:32:42;20.90;57.30
16347;DHT22;8283;48.504;13.734;2023-07-24T03:35:27;20.80;57.20
16347;DHT22;8283;48.504;13.734;2023-07-24T03:38:12;20.80;57.30
16347;DHT22;8283;48.504;13.734;2023-07-24T03:40:57;20.90;57.40
16347;DHT22;8283;48.504;13.734;2023-07-24T03:43:42;20.90;57.50
16347;DHT22;8283;48.504;13.734;2023-07-24T03:46:27;20.90;57.60
16347;DHT22;8283;48.504;13.734;2023-07-24T03:49:12;20.90;57.60
16347;DHT22;8283;48.504;13.734;2023-07-24T03:51:57;20.80;57.70
16347;DHT22;8283;48.504;13.734;2023-07-24T03:54:42;20.80;57.70
16347;DHT22;8283;48.504;13.734;2023-07-24T03:57:27;20.80;57.70
16347;DHT22;8283;48.504;13.734;2023-07-24T04:00:12;20.90;57.80
16347;DHT22;8283;48.504;13.734;2023-07-24T04:02:57;20.90;57.90
16347;DHT22;8283;48.504;13.734;2023-07-24T04:05:42;20.80;57.80
16347;DHT22;8283;48.504;13.734;2023-07-24T04:08:27;21.00;57.90
16347;DHT22;8283;48.504;13.734;2023-07-24T04:11:12;21.20;58.00
16347;DHT22;8283;48.504;13.734;2023-07-24T04:13:57;21.10;58.00
16347;DHT22;8283;48.504;13.734;2023-07-24T04:16:43;21.10;58.10
16347;DHT22;8283;48.504;13.734;2023-07-24T04:19:28;21.10;58.10
16347;DHT22;8283;48.504;13.734;2023-07-24T04:22:13;21.20;58.20
16347;DHT22;8283;48.504;13.734;2023-07-24T04:24:57;21.20;58.20
16347;DHT22;8283;48.504;13.734;2023-07-24T04:27:41;21.30;58.30
16347;DHT22;8283;48.504;13.734;2023-07-24T04:30:25;21.30;58.30
16347;DHT22;8283;48.504;13.734;2023-07-24T04:33:10;21.30;58.30
16347;DHT22;8283;48.504;13.734;2023-07-24T04:35:55;21.40;58.40
16347;DHT22;8283;48.504;13.734;2023-07-24T04:38:40;21.40;58.40
16347;DHT22;8283;48.504;13.734;2023-07-24T04:41:24;21.40;58.40
16347;DHT22;8283;48.504;13.734;2023-07-24T04:44:08;21.40;58.40
16347;DHT22;8283;48.504;13.734;2023-07-24T04:46:52;21.50;58.50
16347;DHT22;8283;48.504;13.734;2023-07-24T04:49:36;21.60;58.50
16347;DHT22;8283;48.504;13.734;2023-07-24T04:52:21;21.50;58.40
16347;DHT22;8283;48.504;13.734;2023-07-24T04:55:05;21.60;58.50
16347;DHT22;8283;48.504;13.734;2023-07-24T04:57:49;21.60;58.50
16347;DHT22;8283;48.504;13.734;2023-07-24T05:00:34;21.60;58.50
16347;DHT22;8283;48.504;13.734;2023-07-24T05:03:19;21.70;58.60
16347;DHT22;8283;48.504;13.734;2023-07-24T05:06:03;21.60;58.70
16347;DHT22;8283;48.504;13.734;2023-07-24T05:08:48;21.60;58.70
16347;DHT22;8283;48.504;13.734;2023-07-24T05:11:32;22.00;59.00
16347;DHT22;8283;48.504;13.734;2023-07-24T05:14:16;21.80;58.90
16347;DHT22;8283;48.504;13.734;2023-07-24T05:17:00;21.80;58.90
16347;DHT22;8283;48.504;13.734;2023-07-24T05:19:45;21.90;58.90
16347;DHT22;8283;48.504;13.734;2023-07-24T05:22:29;22.00;58.90
16347;DHT22;8283;48.504;13.734;2023-07-24T05:25:14;22.00;58.90
16347;DHT22;8283;48.504;13.734;2023-07-24T05:27:59;22.00;58.60
16347;DHT22;8283;48.504;13.734;2023-07-24T05:30:44;22.00;58.70
16347;DHT22;8283;48.504;13.734;2023-07-24T05:33:30;22.00;58.60
16347;DHT22;8283;48.504;13.734;2023-07-24T05:36:15;22.00;58.60
16347;DHT22;8283;48.504;13.734;2023-07-24T05:39:00;21.90;58.60
16347;DHT22;8283;48.504;13.734;2023-07-24T05:41:47;22.00;58.60
16347;DHT22;8283;48.504;13.734;2023-07-24T05:44:32;21.90;58.70
16347;DHT22;8283;48.504;13.734;2023-07-24T05:47:17;22.10;58.80
16347;DHT22;8283;48.504;13.734;2023-07-24T05:50:03;22.10;58.80
16347;DHT22;8283;48.504;13.734;2023-07-24T05:52:48;22.10;58.70
16347;DHT22;8283;48.504;13.734;2023-07-24T05:55:33;22.20;58.70
16347;DHT22;8283;48.504;13.734;2023-07-24T05:58:18;22.50;59.10
16347;DHT22;8283;48.504;13.734;2023-07-24T06:01:02;22.30;59.10
16347;DHT22;8283;48.504;13.734;2023-07-24T06:03:47;22.40;59.10
16347;DHT22;8283;48.504;13.734;2023-07-24T06:06:31;22.50;59.20
16347;DHT22;8283;48.504;13.734;2023-07-24T06:09:16;22.50;59.40
16347;DHT22;8283;48.504;13.734;2023-07-24T06:12:00;22.40;59.40
16347;DHT22;8283;48.504;13.734;2023-07-24T06:14:44;22.50;59.60
16347;DHT22;8283;48.504;13.734;2023-07-24T06:17:28;22.50;59.60
16347;DHT22;8283;48.504;13.734;2023-07-24T06:20:12;22.60;59.80
16347;DHT22;8283;48.504;13.734;2023-07-24T06:22:56;22.50;60.00
16347;DHT22;8283;48.504;13.734;2023-07-24T06:25:40;22.60;60.00
16347;DHT22;8283;48.504;13.734;2023-07-24T06:28:24;22.60;60.40
16347;DHT22;8283;48.504;13.734;2023-07-24T06:31:08;22.70;60.40
16347;DHT22;8283;48.504;13.734;2023-07-24T06:33:53;22.70;60.50
16347;DHT22;8283;48.504;13.734;2023-07-24T06:36:37;22.80;60.60
16347;DHT22;8283;48.504;13.734;2023-07-24T06:39:21;22.90;60.70
16347;DHT22;8283;48.504;13.734;2023-07-24T06:42:05;23.00;61.00
16347;DHT22;8283;48.504;13.734;2023-07-24T06:44:49;23.20;61.00
16347;DHT22;8283;48.504;13.734;2023-07-24T06:47:34;23.40;61.10
16347;DHT22;8283;48.504;13.734;2023-07-24T06:50:27;23.50;61.10
16347;DHT22;8283;48.504;13.734;2023-07-24T06:53:15;23.70;61.10
16347;DHT22;8283;48.504;13.734;2023-07-24T06:56:00;23.90;60.70
16347;DHT22;8283;48.504;13.734;2023-07-24T06:58:45;24.00;60.10
16347;DHT22;8283;48.504;13.734;2023-07-24T07:01:30;24.20;59.80
16347;DHT22;8283;48.504;13.734;2023-07-24T07:04:16;24.20;59.50
16347;DHT22;8283;48.504;13.734;2023-07-24T07:07:01;24.30;59.20
16347;DHT22;8283;48.504;13.734;2023-07-24T07:09:46;24.40;59.00
16347;DHT22;8283;48.504;13.734;2023-07-24T07:12:31;24.40;58.90
16347;DHT22;8283;48.504;13.734;2023-07-24T07:15:16;24.30;58.60
16347;DHT22;8283;48.504;13.734;2023-07-24T07:18:01;24.50;58.70
16347;DHT22;8283;48.504;13.734;2023-07-24T07:20:50;24.50;58.60
16347;DHT22;8283;48.504;13.734;2023-07-24T07:23:35;24.60;58.70
16347;DHT22;8283;48.504;13.734;2023-07-24T07:26:19;24.80;58.70
16347;DHT22;8283;48.504;13.734;2023-07-24T07:29:04;24.70;58.70
16347;DHT22;8283;48.504;13.734;2023-07-24T07:31:48;24.80;58.70
16347;DHT22;8283;48.504;13.734;2023-07-24T07:34:32;24.90;58.70
16347;DHT22;8283;48.504;13.734;2023-07-24T07:37:19;25.00;58.80
16347;DHT22;8283;48.504;13.734;2023-07-24T07:40:03;25.10;58.90
16347;DHT22;8283;48.504;13.734;2023-07-24T07:42:49;25.30;59.00
16347;DHT22;8283;48.504;13.734;2023-07-24T07:45:33;25.40;58.90
16347;DHT22;8283;48.504;13.734;2023-07-24T07:48:17;25.50;58.70
16347;DHT22;8283;48.504;13.734;2023-07-24T07:51:02;25.80;59.00
16347;DHT22;8283;48.504;13.734;2023-07-24T07:53:47;26.00;58.90
16347;DHT22;8283;48.504;13.734;2023-07-24T07:56:31;26.20;58.90
16347;DHT22;8283;48.504;13.734;2023-07-24T07:59:15;26.60;59.10
16347;DHT22;8283;48.504;13.734;2023-07-24T08:01:59;26.90;59.00
16347;DHT22;8283;48.504;13.734;2023-07-24T08:04:43;27.30;58.90
16347;DHT22;8283;48.504;13.734;2023-07-24T08:07:27;27.60;58.70
16347;DHT22;8283;48.504;13.734;2023-07-24T08:10:11;28.00;58.40
16347;DHT22;8283;48.504;13.734;2023-07-24T08:12:59;28.40;58.00
16347;DHT22;8283;48.504;13.734;2023-07-24T08:15:43;28.70;57.50
16347;DHT22;8283;48.504;13.734;2023-07-24T08:18:28;29.10;57.10
16347;DHT22;8283;48.504;13.734;2023-07-24T08:21:12;29.40;56.60
16347;DHT22;8283;48.504;13.734;2023-07-24T08:23:59;29.80;56.40
16347;DHT22;8283;48.504;13.734;2023-07-24T08:26:45;30.10;56.20
16347;DHT22;8283;48.504;13.734;2023-07-24T08:29:29;30.50;55.60
16347;DHT22;8283;48.504;13.734;2023-07-24T08:32:14;30.80;55.30
16347;DHT22;8283;48.504;13.734;2023-07-24T08:34:59;31.10;54.60
16347;DHT22;8283;48.504;13.734;2023-07-24T08:37:44;31.30;53.80
16347;DHT22;8283;48.504;13.734;2023-07-24T08:40:28;31.50;53.10
16347;DHT22;8283;48.504;13.734;2023-07-24T08:43:14;31.60;52.80
16347;DHT22;8283;48.504;13.734;2023-07-24T08:46:00;31.70;52.70
16347;DHT22;8283;48.504;13.734;2023-07-24T08:48:45;31.80;52.50
16347;DHT22;8283;48.504;13.734;2023-07-24T08:51:31;31.90;52.50
16347;DHT22;8283;48.504;13.734;2023-07-24T08:54:17;32.10;52.20
16347;DHT22;8283;48.504;13.734;2023-07-24T08:57:03;32.20;52.20
16347;DHT22;8283;48.504;13.734;2023-07-24T08:59:48;32.40;52.10
16347;DHT22;8283;48.504;13.734;2023-07-24T09:02:35;32.60;52.00
16347;DHT22;8283;48.504;13.734;2023-07-24T09:05:19;32.80;51.50
16347;DHT22;8283;48.504;13.734;2023-07-24T09:08:04;33.00;51.70
16347;DHT22;8283;48.504;13.734;2023-07-24T09:10:50;33.30;51.60
16347;DHT22;8283;48.504;13.734;2023-07-24T09:13:37;33.50;51.30
16347;DHT22;8283;48.504;13.734;2023-07-24T09:16:26;33.70;51.00
16347;DHT22;8283;48.504;13.734;2023-07-24T09:19:17;33.90;50.00
16347;DHT22;8283;48.504;13.734;2023-07-24T09:22:10;34.10;49.60
16347;DHT22;8283;48.504;13.734;2023-07-24T09:24:57;34.30;49.10
16347;DHT22;8283;48.504;13.734;2023-07-24T09:27:42;34.40;49.60
16347;DHT22;8283;48.504;13.734;2023-07-24T09:30:28;34.40;49.50
16347;DHT22;8283;48.504;13.734;2023-07-24T09:33:13;34.40;49.60
16347;DHT22;8283;48.504;13.734;2023-07-24T09:36:00;34.40;49.10
16347;DHT22;8283;48.504;13.734;2023-07-24T09:38:45;34.30;48.70
16347;DHT22;8283;48.504;13.734;2023-07-24T09:41:30;34.20;48.40
16347;DHT22;8283;48.504;13.734;2023-07-24T09:44:15;34.10;48.40
16347;DHT22;8283;48.504;13.734;2023-07-24T09:47:01;34.00;48.50
16347;DHT22;8283;48.504;13.734;2023-07-24T09:49:47;33.80;48.20
16347;DHT22;8283;48.504;13.734;2023-07-24T09:52:32;33.60;48.00
16347;DHT22;8283;48.504;13.734;2023-07-24T09:55:27;33.40;47.90
16347;DHT22;8283;48.504;13.734;2023-07-24T09:58:15;33.10;47.30
16347;DHT22;8283;48.504;13.734;2023-07-24T10:01:03;32.80;47.70
16347;DHT22;8283;48.504;13.734;2023-07-24T10:03:50;32.60;48.10
16347;DHT22;8283;48.504;13.734;2023-07-24T10:06:36;32.30;48.20
16347;DHT22;8283;48.504;13.734;2023-07-24T10:09:22;32.20;48.50
16347;DHT22;8283;48.504;13.734;2023-07-24T10:12:09;31.90;48.60
16347;DHT22;8283;48.504;13.734;2023-07-24T10:14:54;31.80;48.80
16347;DHT22;8283;48.504;13.734;2023-07-24T10:17:41;31.80;48.80
16347;DHT22;8283;48.504;13.734;2023-07-24T10:20:36;31.70;48.70
16347;DHT22;8283;48.504;13.734;2023-07-24T10:23:22;31.60;48.60
16347;DHT22;8283;48.504;13.734;2023-07-24T10:26:08;31.50;48.80
16347;DHT22;8283;48.504;13.734;2023-07-24T10:28:53;31.40;48.90
16347;DHT22;8283;48.504;13.734;2023-07-24T10:31:38;31.30;48.90
16347;DHT22;8283;48.504;13.734;2023-07-24T10:34:22;31.20;48.90
16347;DHT22;8283;48.504;13.734;2023-07-24T10:37:08;31.10;48.90
16347;DHT22;8283;48.504;13.734;2023-07-24T10:39:53;30.90;48.80
16347;DHT22;8283;48.504;13.734;2023-07-24T10:42:38;30.90;48.90
16347;DHT22;8283;48.504;13.734;2023-07-24T10:45:22;30.80;48.80
16347;DHT22;8283;48.504;13.734;2023-07-24T10:48:07;30.60;48.70
16347;DHT22;8283;48.504;13.734;2023-07-24T10:50:52;30.50;48.80
16347;DHT22;8283;48.504;13.734;2023-07-24T10:53:37;30.40;48.70
16347;DHT22;8283;48.504;13.734;2023-07-24T10:56:21;30.30;48.70
16347;DHT22;8283;48.504;13.734;2023-07-24T10:59:06;30.20;48.70
16347;DHT22;8283;48.504;13.734;2023-07-24T11:01:50;30.10;48.70
16347;DHT22;8283;48.504;13.734;2023-07-24T11:04:35;29.90;48.80
16347;DHT22;8283;48.504;13.734;2023-07-24T11:07:19;29.90;49.00
16347;DHT22;8283;48.504;13.734;2023-07-24T11:10:17;29.90;49.00
16347;DHT22;8283;48.504;13.734;2023-07-24T11:13:02;29.80;49.20
16347;DHT22;8283;48.504;13.734;2023-07-24T11:15:48;29.80;49.30
16347;DHT22;8283;48.504;13.734;2023-07-24T11:18:32;29.80;49.40
16347;DHT22;8283;48.504;13.734;2023-07-24T11:21:16;29.80;50.00
16347;DHT22;8283;48.504;13.734;2023-07-24T11:24:06;29.80;49.60
16347;DHT22;8283;48.504;13.734;2023-07-24T11:26:53;29.90;50.10
16347;DHT22;8283;48.504;13.734;2023-07-24T11:29:39;30.10;50.30
16347;DHT22;8283;48.504;13.734;2023-07-24T11:32:23;30.20;50.20
16347;DHT22;8283;48.504;13.734;2023-07-24T11:35:09;30.30;50.20
16347;DHT22;8283;48.504;13.734;2023-07-24T11:37:55;30.60;50.00
16347;DHT22;8283;48.504;13.734;2023-07-24T11:40:42;30.70;49.80
16347;DHT22;8283;48.504;13.734;2023-07-24T11:43:29;30.90;49.50
16347;DHT22;8283;48.504;13.734;2023-07-24T11:46:25;31.10;49.50
16347;DHT22;8283;48.504;13.734;2023-07-24T11:49:14;31.20;48.80
16347;DHT22;8283;48.504;13.734;2023-07-24T11:52:04;31.30;48.70
16347;DHT22;8283;48.504;13.734;2023-07-24T11:54:59;31.40;48.70
16347;DHT22;8283;48.504;13.734;2023-07-24T11:57:58;31.60;48.40
16347;DHT22;8283;48.504;13.734;2023-07-24T12:00:43;31.70;47.80
16347;DHT22;8283;48.504;13.734;2023-07-24T12:03:30;31.70;48.50
16347;DHT22;8283;48.504;13.734;2023-07-24T12:06:15;31.90;48.40
16347;DHT22;8283;48.504;13.734;2023-07-24T12:09:03;32.10;49.20
16347;DHT22;8283;48.504;13.734;2023-07-24T12:11:48;32.30;48.60
16347;DHT22;8283;48.504;13.734;2023-07-24T12:14:33;32.50;48.30
16347;DHT22;8283;48.504;13.734;2023-07-24T12:17:18;32.60;47.80
16347;DHT22;8283;48.504;13.734;2023-07-24T12:20:06;32.80;47.50
16347;DHT22;8283;48.504;13.734;2023-07-24T12:22:53;32.80;47.10
16347;DHT22;8283;48.504;13.734;2023-07-24T12:25:38;32.90;47.30
16347;DHT22;8283;48.504;13.734;2023-07-24T12:28:24;33.00;47.30
16347;DHT22;8283;48.504;13.734;2023-07-24T12:31:08;33.00;47.50
16347;DHT22;8283;48.504;13.734;2023-07-24T12:33:54;33.20;47.60
16347;DHT22;8283;48.504;13.734;2023-07-24T12:36:38;33.30;47.30
16347;DHT22;8283;48.504;13.734;2023-07-24T12:39:24;33.50;47.20
16347;DHT22;8283;48.504;13.734;2023-07-24T12:42:08;33.60;47.20
16347;DHT22;8283;48.504;13.734;2023-07-24T12:44:54;33.70;46.60
16347;DHT22;8283;48.504;13.734;2023-07-24T12:47:39;33.80;46.60
16347;DHT22;8283;48.504;13.734;2023-07-24T12:50:23;33.90;46.50
16347;DHT22;8283;48.504;13.734;2023-07-24T12:53:09;34.10;46.60
16347;DHT22;8283;48.504;13.734;2023-07-24T12:55:54;34.10;46.60
16347;DHT22;8283;48.504;13.734;2023-07-24T12:58:39;34.30;47.00
16347;DHT22;8283;48.504;13.734;2023-07-24T13:01:24;34.50;46.90
16347;DHT22;8283;48.504;13.734;2023-07-24T13:04:09;34.70;46.20
16347;DHT22;8283;48.504;13.734;2023-07-24T13:06:53;34.80;45.90
16347;DHT22;8283;48.504;13.734;2023-07-24T13:09:38;35.00;45.80
16347;DHT22;8283;48.504;13.734;2023-07-24T13:12:24;35.00;45.30
16347;DHT22;8283;48.504;13.734;2023-07-24T13:15:08;35.10;45.20
16347;DHT22;8283;48.504;13.734;2023-07-24T13:17:53;35.10;45.00
16347;DHT22;8283;48.504;13.734;2023-07-24T13:20:39;35.20;44.80
16347;DHT22;8283;48.504;13.734;2023-07-24T13:23:24;35.20;44.60
16347;DHT22;8283;48.504;13.734;2023-07-24T13:26:09;35.30;44.50
16347;DHT22;8283;48.504;13.734;2023-07-24T13:28:55;35.30;44.40
16347;DHT22;8283;48.504;13.734;2023-07-24T13:31:39;35.30;44.10
16347;DHT22;8283;48.504;13.734;2023-07-24T13:34:25;35.30;43.90
16347;DHT22;8283;48.504;13.734;2023-07-24T13:37:09;35.30;44.10
16347;DHT22;8283;48.504;13.734;2023-07-24T13:39:53;35.40;44.30
16347;DHT22;8283;48.504;13.734;2023-07-24T13:42:38;35.30;43.90
16347;DHT22;8283;48.504;13.734;2023-07-24T13:45:22;35.40;43.90
16347;DHT22;8283;48.504;13.734;2023-07-24T13:48:06;35.50;43.80
16347;DHT22;8283;48.504;13.734;2023-07-24T13:50:51;35.50;43.40
16347;DHT22;8283;48.504;13.734;2023-07-24T13:53:35;35.40;43.20
16347;DHT22;8283;48.504;13.734;2023-07-24T13:56:20;35.20;42.90
16347;DHT22;8283;48.504;13.734;2023-07-24T13:59:07;35.10;42.90
16347;DHT22;8283;48.504;13.734;2023-07-24T14:01:51;34.90;42.80
16347;DHT22;8283;48.504;13.734;2023-07-24T14:04:35;34.70;42.70
16347;DHT22;8283;48.504;13.734;2023-07-24T14:07:20;34.50;42.50
16347;DHT22;8283;48.504;13.734;2023-07-24T14:10:05;34.20;42.30
16347;DHT22;8283;48.504;13.734;2023-07-24T14:12:50;34.00;42.20
16347;DHT22;8283;48.504;13.734;2023-07-24T14:15:34;33.70;42.30
16347;DHT22;8283;48.504;13.734;2023-07-24T14:18:19;33.50;42.50
16347;DHT22;8283;48.504;13.734;2023-07-24T14:21:04;33.30;42.90
16347;DHT22;8283;48.504;13.734;2023-07-24T14:23:48;33.10;43.00
16347;DHT22;8283;48.504;13.734;2023-07-24T14:26:33;33.00;43.20
16347;DHT22;8283;48.504;13.734;2023-07-24T14:29:17;32.80;43.30
16347;DHT22;8283;48.504;13.734;2023-07-24T14:32:03;32.60;43.30
16347;DHT22;8283;48.504;13.734;2023-07-24T14:34:50;32.50;43.50
16347;DHT22;8283;48.504;13.734;2023-07-24T14:37:36;32.30;43.60
16347;DHT22;8283;48.504;13.734;2023-07-24T14:40:20;32.20;43.70
16347;DHT22;8283;48.504;13.734;2023-07-24T14:43:06;32.00;43.80
16347;DHT22;8283;48.504;13.734;2023-07-24T14:45:51;31.80;43.90
16347;DHT22;8283;48.504;13.734;2023-07-24T14:48:36;31.60;44.20
16347;DHT22;8283;48.504;13.734;2023-07-24T14:51:20;31.40;44.30
16347;DHT22;8283;48.504;13.734;2023-07-24T14:54:05;31.30;44.60
16347;DHT22;8283;48.504;13.734;2023-07-24T14:56:52;31.10;44.70
16347;DHT22;8283;48.504;13.734;2023-07-24T14:59:37;31.00;45.00
16347;DHT22;8283;48.504;13.734;2023-07-24T15:02:22;30.90;45.20
16347;DHT22;8283;48.504;13.734;2023-07-24T15:05:07;30.70;45.40
16347;DHT22;8283;48.504;13.734;2023-07-24T15:07:52;30.60;45.50
16347;DHT22;8283;48.504;13.734;2023-07-24T15:10:37;30.50;46.00
16347;DHT22;8283;48.504;13.734;2023-07-24T15:13:22;30.40;46.20
16347;DHT22;8283;48.504;13.734;2023-07-24T15:16:07;30.20;46.50
16347;DHT22;8283;48.504;13.734;2023-07-24T15:18:52;30.00;46.80
16347;DHT22;8283;48.504;13.734;2023-07-24T15:21:36;29.80;47.00
16347;DHT22;8283;48.504;13.734;2023-07-24T15:24:22;29.70;47.40
16347;DHT22;8283;48.504;13.734;2023-07-24T15:27:07;29.60;47.60
16347;DHT22;8283;48.504;13.734;2023-07-24T15:29:55;29.40;48.00
16347;DHT22;8283;48.504;13.734;2023-07-24T15:32:42;29.30;48.30
16347;DHT22;8283;48.504;13.734;2023-07-24T15:35:28;29.20;49.20
16347;DHT22;8283;48.504;13.734;2023-07-24T15:38:13;29.20;48.80
16347;DHT22;8283;48.504;13.734;2023-07-24T15:40:57;29.10;49.20
16347;DHT22;8283;48.504;13.734;2023-07-24T15:43:42;29.00;49.50
16347;DHT22;8283;48.504;13.734;2023-07-24T15:46:27;28.90;49.80
16347;DHT22;8283;48.504;13.734;2023-07-24T15:49:14;28.90;50.10
16347;DHT22;8283;48.504;13.734;2023-07-24T15:51:59;28.80;50.10
16347;DHT22;8283;48.504;13.734;2023-07-24T15:54:44;28.70;50.30
16347;DHT22;8283;48.504;13.734;2023-07-24T15:57:28;28.60;50.60
16347;DHT22;8283;48.504;13.734;2023-07-24T16:00:14;28.70;51.00
16347;DHT22;8283;48.504;13.734;2023-07-24T16:03:00;28.70;51.40
16347;DHT22;8283;48.504;13.734;2023-07-24T16:05:45;28.70;51.50
16347;DHT22;8283;48.504;13.734;2023-07-24T16:08:30;28.80;51.80
16347;DHT22;8283;48.504;13.734;2023-07-24T16:11:15;28.80;51.80
16347;DHT22;8283;48.504;13.734;2023-07-24T16:14:00;28.90;51.80
16347;DHT22;8283;48.504;13.734;2023-07-24T16:16:45;29.00;51.90
16347;DHT22;8283;48.504;13.734;2023-07-24T16:19:30;29.10;52.10
16347;DHT22;8283;48.504;13.734;2023-07-24T16:22:15;29.20;52.20
16347;DHT22;8283;48.504;13.734;2023-07-24T16:24:59;29.30;52.10
16347;DHT22;8283;48.504;13.734;2023-07-24T16:27:45;29.40;52.30
16347;DHT22;8283;48.504;13.734;2023-07-24T16:30:29;29.50;52.30
16347;DHT22;8283;48.504;13.734;2023-07-24T16:33:13;29.60;52.20
16347;DHT22;8283;48.504;13.734;2023-07-24T16:35:57;29.80;52.50
16347;DHT22;8283;48.504;13.734;2023-07-24T16:38:41;30.00;52.40
16347;DHT22;8283;48.504;13.734;2023-07-24T16:41:26;30.10;52.30
16347;DHT22;8283;48.504;13.734;2023-07-24T16:44:10;30.30;52.10
16347;DHT22;8283;48.504;13.734;2023-07-24T16:46:55;30.40;51.90
16347;DHT22;8283;48.504;13.734;2023-07-24T16:49:40;30.50;52.50
16347;DHT22;8283;48.504;13.734;2023-07-24T16:52:24;30.60;51.70
16347;DHT22;8283;48.504;13.734;2023-07-24T16:55:09;30.60;51.50
16347;DHT22;8283;48.504;13.734;2023-07-24T16:57:53;30.70;51.60
16347;DHT22;8283;48.504;13.734;2023-07-24T17:00:37;30.70;51.60
16347;DHT22;8283;48.504;13.734;2023-07-24T17:03:21;30.80;51.70
16347;DHT22;8283;48.504;13.734;2023-07-24T17:06:06;30.80;51.80
16347;DHT22;8283;48.504;13.734;2023-07-24T17:08:50;30.80;51.50
16347;DHT22;8283;48.504;13.734;2023-07-24T17:11:34;30.70;51.40
16347;DHT22;8283;48.504;13.734;2023-07-24T17:14:18;30.70;51.60
16347;DHT22;8283;48.504;13.734;2023-07-24T17:17:03;30.60;51.80
16347;DHT22;8283;48.504;13.734;2023-07-24T17:19:47;30.50;51.60
16347;DHT22;8283;48.504;13.734;2023-07-24T17:22:32;30.40;51.60
16347;DHT22;8283;48.504;13.734;2023-07-24T17:25:16;30.30;51.70